Saturday, December 15, 2018, 8:55 AM EST
Back to Local

KABE, Lehigh Valley International Airport

Location: Allentown, PA, United States Lat: 40.65
Local Time: 8:55 AM EST (13:55 GMT) Lon: -75.45
Time Zone: US/Eastern Elev: 393 ft

Show me the last for .
Show Decoded

2018-12-15 08:15 METAR KABE 151315Z 04003KT 5SM BR OVC010 08/06 A3016 RMK AO2 T00780056 =
2018-12-15 07:51 METAR KABE 151251Z 36004KT 5SM BR OVC007 07/06 A3015 RMK AO2 CIG 006V009 SLP213
                 T00720056 =
2018-12-15 07:21 METAR KABE 151221Z 07005KT 6SM BR BKN007 OVC022 07/06 A3014 RMK AO2 T00720056 =
2018-12-15 06:51 METAR KABE 151151Z VRB03KT 6SM BR FEW009 OVC020 08/06 A3015 RMK AO2 SLP212 60014
                 70028 T00780056 10078 20067 58004 =
2018-12-15 06:40 METAR KABE 151140Z 10006KT 6SM BR SCT009 OVC021 07/06 A3015 =
2018-12-15 05:51 METAR KABE 151051Z 09004KT 6SM BR OVC010 07/06 A3016 RMK AO2 SLP215 T00720056 =
2018-12-15 04:51 METAR KABE 150951Z 00000KT 6SM BR OVC007 07/05 A3016 RMK AO2 RAE51 CIG 003V010
                 SLP216 P0000 T00670050 =
2018-12-15 04:48 METAR KABE 150948Z 34003KT 7SM -RA SCT004 OVC009 07/06 A3016 RMK AO2 P0000 =
2018-12-15 04:15 METAR KABE 150915Z 02005KT 4SM -RA BR BKN002 BKN013 OVC090 07/05 A3016 RMK AO2
                 P0000 T00670050 =
2018-12-15 04:07 METAR KABE 150907Z 35007KT 4SM -RA BR SCT003 OVC095 07/05 A3017 RMK AO2 P0000
                 T00670050 =
2018-12-15 03:51 METAR KABE 150851Z 16006KT 4SM -RA BR OVC095 07/05 A3015 RMK AO2 PRESFR SLP212
                 P0005 60014 T00720050 58020 =
2018-12-15 03:30 METAR KABE 150830Z 15005KT 3SM -RA BR FEW044 SCT070 OVC085 07/05 A3018 RMK AO2
                 PRESFR P0004 T00670050 =
2018-12-15 03:16 METAR KABE 150816Z 14004KT 1 1/4SM -RA BR FEW013 BKN037 OVC080 07/05 A3020 RMK
                 AO2 P0003 T00670050 =
2018-12-15 02:51 METAR KABE 150751Z 00000KT 1 3/4SM RA BR SCT013 OVC020 07/05 A3022 RMK AO2
                 SLP235 P0006 T00670050 =
2018-12-15 02:44 METAR KABE 150744Z 00000KT 2SM -RA BR FEW013 OVC020 07/05 A3022 RMK AO2 P0005
                 T00670050 =
2018-12-15 02:32 METAR KABE 150732Z 00000KT 1 3/4SM -RA BR SCT014 OVC028 07/06 A3022 RMK AO2
                 P0004 T00670056 =
2018-12-15 02:20 METAR KABE 150720Z 00000KT 2SM -RA BR OVC014 07/05 A3022 RMK AO2 P0002 T00670050
                 =
2018-12-15 02:00 METAR KABE 150700Z 00000KT 3SM -RA BR BKN014 BKN020 OVC024 07/05 A3022 RMK AO2
                 P0000 T00670050 =
2018-12-15 01:51 METAR KABE 150651Z 00000KT 2 1/2SM -RA BR BKN014 BKN024 OVC029 07/05 A3022 RMK
                 AO2 SLP235 P0003 T00670050 =
2018-12-15 01:29 METAR KABE 150629Z 00000KT 2SM -RA BR SCT003 BKN017 OVC027 07/05 A3021 RMK AO2
                 P0002 T00670050 =
2018-12-15 01:22 METAR KABE 150622Z 00000KT 1 3/4SM -RA BR BKN003 BKN019 OVC027 07/05 A3021 RMK
                 AO2 P0001 T00670050 =
2018-12-15 01:14 METAR KABE 150614Z 00000KT 2SM -RA BR SCT003 BKN027 OVC033 07/05 A3021 RMK AO2
                 P0000 T00670050 =
2018-12-15 01:02 METAR KABE 150602Z 00000KT 2SM -RA BR FEW021 BKN027 OVC035 07/05 A3021 RMK AO2
                 P0000 T00670050 =
2018-12-15 00:51 METAR KABE 150551Z 00000KT 1 3/4SM -RA BR BKN028 OVC036 07/05 A3021 RMK AO2
                 SLP233 P0003 60014 T00670050 10078 20061 56016 =
2018-12-15 00:46 METAR KABE 150546Z 00000KT 1 3/4SM -RA BR BKN028 OVC039 07/05 A3021 RMK AO2
                 P0002 =
2018-12-15 00:36 METAR KABE 150536Z AUTO 00000KT 2SM -RA BR BKN029 OVC036 07/06 A3022 RMK AO2
                 P0002 T00670056 =
2018-12-14 23:58 METAR KABE 150458Z AUTO 00000KT 2SM -RA BR SCT038 OVC050 07/05 A3023 RMK AO2
                 P0001 T00670050 =
2018-12-14 23:51 METAR KABE 150451Z AUTO 00000KT 1 3/4SM -RA BR FEW040 OVC055 07/05 A3023 RMK AO2
                 SLP240 P0002 T00670050 400780011 =
2018-12-14 23:32 METAR KABE 150432Z AUTO 00000KT 1 3/4SM -RA BR BKN060 OVC070 07/05 A3024 RMK AO2
                 P0002 T00670050 =
2018-12-14 23:17 METAR KABE 150417Z AUTO 00000KT 2 1/2SM -RA BR BKN060 OVC075 07/05 A3025 =
2018-12-14 22:51 METAR KABE 150351Z 07003KT 3SM -RA BR BKN060 OVC075 07/05 A3026 RMK AO2 SLP249
                 P0003 T00670050 =
2018-12-14 22:39 METAR KABE 150339Z 00000KT 2 1/2SM -RA BR FEW005 BKN060 OVC075 07/05 A3027 =
2018-12-14 22:26 METAR KABE 150326Z 00000KT 3SM -RA BR SCT006 SCT017 OVC070 07/05 A3028 RMK AO2
                 P0002 T00670050 =
2018-12-14 21:51 METAR KABE 150251Z 30003KT 4SM -RA BR OVC007 07/05 A3029 RMK AO2 SLP259 P0004
                 60006 T00670050 56009 =
2018-12-14 20:51 METAR KABE 150151Z 00000KT 4SM -RA BR OVC008 07/05 A3029 RMK AO2 SLP261 P0002
                 T00670050 =
2018-12-14 20:35 METAR KABE 150135Z 33004KT 5SM -RA BR OVC008 07/04 A3030 RMK AO2 P0002 T00670044
                 =
2018-12-14 20:11 METAR KABE 150111Z 33003KT 7SM -RA SCT008 SCT070 OVC090 07/04 A3030 RMK AO2
                 P0001 T00670044 =
2018-12-14 19:51 METAR KABE 150051Z 00000KT 7SM -RA OVC008 07/04 A3030 RMK AO2 RAB45 SLP263 P0000
                 T00670039 =
2018-12-14 18:51 METAR KABE 142351Z 00000KT 8SM OVC009 07/04 A3031 RMK AO2 RAB34E45 SLP268 P0000
                 60000 T00720044 10078 20067 58005 =
2018-12-14 17:51 METAR KABE 142251Z 00000KT 6SM HZ OVC010 08/04 A3034 RMK AO2 CIG 009V013 SLP276
                 T00780044 =
2018-12-14 17:00 METAR KABE 142200Z 31004KT 6SM HZ OVC010 07/04 A3034 RMK AO2 T00720044 =
2018-12-14 16:51 METAR KABE 142151Z 32004KT 5SM BR OVC009 07/04 A3034 RMK AO2 SLP275 T00720044 =
2018-12-14 15:51 METAR KABE 142051Z 03003KT 7SM OVC009 08/04 A3033 RMK AO2 SLP273 T00780044 55009
                 =
2018-12-14 14:51 METAR KABE 141951Z 00000KT 7SM OVC009 08/04 A3033 RMK AO2 SLP272 T00780039 =
2018-12-14 14:24 METAR KABE 141924Z 00000KT 7SM OVC009 07/04 A3033 RMK AO2 T00720039 =
2018-12-14 13:51 METAR KABE 141851Z 00000KT 6SM HZ OVC010 07/04 A3034 RMK AO2 SLP276 T00720039 =
2018-12-14 12:51 METAR KABE 141751Z 00000KT 2SM HZ OVC010 07/03 A3036 RMK AO2 SFC VIS 5 SLP283
                 T00670033 10067 20022 56033 =
2018-12-14 12:43 METAR KABE 141743Z 00000KT 2SM HZ OVC010 07/03 A3036 RMK AO2 SFC VIS 5 T00670033
                 =
2018-12-14 11:51 METAR KABE 141651Z 06003KT 2SM HZ OVC008 06/03 A3037 RMK AO2 SFC VIS 4 SLP287
                 T00560028 =
2018-12-14 10:51 METAR KABE 141551Z 04003KT 1SM HZ OVC006 05/02 A3043 RMK AO2 SFC VIS 2 1/2
                 SLP307 T00500022 =
2018-12-14 10:36 METAR KABE 141536Z 05006KT 1SM BR OVC006 04/02 A3043 RMK AO2 SFC VIS 2 1/2
                 T00440022 =
2018-12-14 09:51 METAR KABE 141451Z 06005KT 1SM BR OVC003 04/02 A3045 RMK AO2 SFC VIS 2 SLP316
                 T00390017 50001 =

Support USWX by starting your Amazon purchase here.